Time;durP1;ratioP1;P1;durP2;ratioP2;P2;SDS_P1;SDS_P2;PMS_P1;PMS_P2;Temp;Humidity;BMP_temperature;BMP_pressure;BME280_temperature;BME280_humidity;BME280_pressure;Samples;Min_cycle;Max_cycle;Signal;HPM_P1;HPM_P2
2022/08/21 00:01:22;;;;;;;4.30;3.47;;;17.00;99.90;;;;;;5035323;28;20503;-73
2022/08/21 00:03:48;;;;;;;3.70;3.40;;;17.00;99.90;;;;;;5034877;28;20275;-73
2022/08/21 00:06:13;;;;;;;6.27;3.30;;;16.90;99.90;;;;;;5034613;28;20434;-73
2022/08/21 00:08:39;;;;;;;4.07;3.37;;;16.90;99.90;;;;;;5034525;28;20402;-73
2022/08/21 00:11:05;;;;;;;4.10;3.27;;;16.90;99.90;;;;;;5034778;28;20210;-73
2022/08/21 00:13:31;;;;;;;7.27;3.80;;;16.80;99.90;;;;;;5034556;28;20542;-73
2022/08/21 00:15:58;;;;;;;5.37;3.10;;;16.80;99.90;;;;;;5034486;28;20422;-73
2022/08/21 00:18:24;;;;;;;3.43;2.70;;;16.80;99.90;;;;;;5034603;28;20459;-72
2022/08/21 00:20:50;;;;;;;3.83;3.43;;;16.70;99.90;;;;;;5034570;28;20398;-72
2022/08/21 00:23:16;;;;;;;10.27;3.70;;;16.70;99.90;;;;;;5034460;28;20436;-72
2022/08/21 00:25:43;;;;;;;2.93;2.40;;;16.60;99.90;;;;;;5034295;28;20525;-72
2022/08/21 00:28:09;;;;;;;3.20;2.80;;;16.60;99.90;;;;;;5034370;28;20171;-72
2022/08/21 00:30:35;;;;;;;4.53;2.50;;;16.50;99.90;;;;;;5033920;28;20776;-72
2022/08/21 00:33:01;;;;;;;3.50;2.57;;;16.50;99.90;;;;;;5034434;28;20338;-73
2022/08/21 00:35:31;;;;;;;5.00;3.47;;;16.50;99.90;;;;;;5032732;28;20175;-73
2022/08/21 00:37:57;;;;;;;6.37;3.10;;;16.40;99.90;;;;;;5032974;28;20522;-73
2022/08/21 00:40:28;;;;;;;4.13;3.20;;;16.40;99.90;;;;;;5034142;28;20465;-73
2022/08/21 00:42:54;;;;;;;3.37;3.07;;;16.40;99.90;;;;;;5032940;28;20441;-73
2022/08/21 00:45:21;;;;;;;8.43;2.90;;;16.30;99.90;;;;;;5033812;28;20406;-73
2022/08/21 00:47:46;;;;;;;3.10;2.60;;;16.30;99.90;;;;;;5034231;28;20164;-73
2022/08/21 00:50:12;;;;;;;3.20;2.83;;;16.20;99.90;;;;;;5033947;28;20406;-73
2022/08/21 00:52:41;;;;;;;3.00;2.70;;;16.20;99.90;;;;;;5033982;28;20257;-73
2022/08/21 00:55:09;;;;;;;3.00;2.70;;;16.20;99.90;;;;;;5032438;28;20203;-72
2022/08/21 00:57:43;;;;;;;3.80;2.90;;;16.10;99.90;;;;;;5033952;28;20962;-73
2022/08/21 01:00:13;;;;;;;4.10;2.63;;;16.00;99.90;;;;;;5034088;28;20398;-73
2022/08/21 01:02:39;;;;;;;2.93;2.70;;;16.00;99.90;;;;;;5033508;28;20449;-73
2022/08/21 01:05:06;;;;;;;4.73;2.50;;;16.00;99.90;;;;;;5033459;28;20406;-73
2022/08/21 01:07:31;;;;;;;5.47;3.40;;;15.90;99.90;;;;;;5033737;28;20167;-73
2022/08/21 01:09:57;;;;;;;5.40;3.30;;;15.90;99.90;;;;;;5032591;28;20422;-73
2022/08/21 01:12:23;;;;;;;4.20;3.87;;;15.80;99.90;;;;;;5033473;28;20215;-73
2022/08/21 01:14:49;;;;;;;4.53;3.80;;;15.80;99.90;;;;;;5033319;28;20556;-73
2022/08/21 01:17:16;;;;;;;4.10;3.70;;;15.70;99.90;;;;;;5033725;28;20410;-72
2022/08/21 01:19:42;;;;;;;5.20;3.80;;;15.70;99.90;;;;;;5033615;28;20168;-72
2022/08/21 01:22:09;;;;;;;4.37;3.77;;;15.60;99.90;;;;;;5033392;28;20986;-72
2022/08/21 01:24:35;;;;;;;6.20;3.87;;;15.60;99.90;;;;;;5033222;28;20415;-72
2022/08/21 01:27:01;;;;;;;4.70;3.70;;;15.60;99.90;;;;;;5033311;28;20410;-71
2022/08/21 01:29:38;;;;;;;4.53;4.07;;;15.60;99.90;;;;;;5033316;28;20413;-72
2022/08/21 01:32:09;;;;;;;4.60;4.20;;;15.50;99.90;;;;;;5033158;28;20433;-71
2022/08/21 01:34:39;;;;;;;5.17;3.77;;;15.50;99.90;;;;;;5032864;28;20450;-72
2022/08/21 01:37:05;;;;;;;7.90;4.17;;;15.50;99.90;;;;;;5033086;28;20824;-72
2022/08/21 01:39:31;;;;;;;4.80;3.50;;;15.50;99.90;;;;;;5033119;28;20438;-72
2022/08/21 01:41:57;;;;;;;5.67;5.10;;;15.50;99.90;;;;;;5032020;28;20199;-72
2022/08/21 01:44:23;;;;;;;5.83;4.23;;;15.40;99.90;;;;;;5031549;28;20170;-71
2022/08/21 01:46:50;;;;;;;6.93;5.20;;;15.40;99.90;;;;;;5032968;28;20168;-70
2022/08/21 01:49:16;;;;;;;5.40;4.60;;;15.30;99.90;;;;;;5033027;28;20771;-71
2022/08/21 01:51:42;;;;;;;6.40;5.47;;;15.30;99.90;;;;;;5031574;28;20529;-72
2022/08/21 01:54:08;;;;;;;12.00;5.80;;;15.30;99.90;;;;;;5033132;28;20407;-71
2022/08/21 01:56:44;;;;;;;6.13;5.50;;;15.20;99.90;;;;;;5032548;28;20405;-72
2022/08/21 01:59:10;;;;;;;5.03;4.50;;;15.10;99.90;;;;;;5033040;28;20398;-71
2022/08/21 02:01:37;;;;;;;7.43;4.70;;;15.10;99.90;;;;;;5032840;28;20499;-71
2022/08/21 02:04:02;;;;;;;12.67;5.57;;;15.10;99.90;;;;;;5032792;28;20729;-71
2022/08/21 02:06:28;;;;;;;8.60;5.57;;;15.20;99.90;;;;;;5032740;28;20405;-71
2022/08/21 02:08:53;;;;;;;7.27;5.20;;;15.20;99.90;;;;;;5032658;28;20730;-71
2022/08/21 02:11:20;;;;;;;6.30;5.50;;;15.10;99.90;;;;;;5032760;28;20172;-71
2022/08/21 02:13:45;;;;;;;6.77;5.17;;;15.10;99.90;;;;;;5032648;28;20195;-71
2022/08/21 02:16:12;;;;;;;8.13;5.67;;;15.00;99.90;;;;;;5031193;28;20402;-72
2022/08/21 02:18:38;;;;;;;7.70;6.23;;;15.00;99.90;;;;;;5032331;28;20207;-72
2022/08/21 02:21:05;;;;;;;12.33;6.60;;;14.90;99.90;;;;;;5031472;28;20487;-71
2022/08/21 02:23:31;;;;;;;8.33;5.33;;;14.90;99.90;;;;;;5032420;28;20787;-71
2022/08/21 02:25:58;;;;;;;12.13;5.30;;;14.80;99.90;;;;;;5032035;28;20407;-71
2022/08/21 02:28:24;;;;;;;6.43;5.17;;;14.80;99.90;;;;;;5032422;28;20409;-72
2022/08/21 02:30:51;;;;;;;5.63;4.67;;;14.80;99.90;;;;;;5032417;28;20398;-72
2022/08/21 02:33:17;;;;;;;5.70;5.10;;;14.80;99.90;;;;;;5030979;28;20254;-72
2022/08/21 02:35:45;;;;;;;8.20;5.70;;;14.80;99.90;;;;;;5031934;28;20403;-73
2022/08/21 02:38:14;;;;;;;7.80;4.70;;;14.80;99.90;;;;;;5032007;28;20497;-72
2022/08/21 02:40:42;;;;;;;7.67;5.70;;;14.80;99.90;;;;;;5032039;28;20418;-72
2022/08/21 02:43:08;;;;;;;7.37;5.70;;;14.80;99.90;;;;;;5031958;28;20545;-72
2022/08/21 02:45:35;;;;;;;6.90;5.93;;;14.70;99.90;;;;;;5031647;28;20493;-72
2022/08/21 02:48:07;;;;;;;5.90;4.70;;;14.80;99.90;;;;;;5031919;28;20171;-72
2022/08/21 02:50:38;;;;;;;9.37;5.47;;;14.80;99.90;;;;;;5031975;28;20418;-72
2022/08/21 02:53:06;;;;;;;10.03;5.20;;;14.70;99.90;;;;;;5031749;28;20793;-72
2022/08/21 02:55:33;;;;;;;9.43;5.93;;;14.70;99.90;;;;;;5031725;28;20410;-72
2022/08/21 02:57:59;;;;;;;10.03;5.33;;;14.70;99.90;;;;;;5031872;28;20418;-72
2022/08/21 03:00:29;;;;;;;5.37;4.83;;;14.70;99.90;;;;;;5032065;28;20410;-72
2022/08/21 03:02:55;;;;;;;9.93;6.97;;;14.60;99.90;;;;;;5031862;28;20485;-72
2022/08/21 03:05:22;;;;;;;6.93;5.20;;;14.60;99.90;;;;;;5031730;28;20437;-72
2022/08/21 03:07:48;;;;;;;5.47;4.97;;;14.60;99.90;;;;;;5031739;28;20415;-72
2022/08/21 03:10:15;;;;;;;5.40;4.80;;;14.60;99.90;;;;;;5030613;28;20501;-72
2022/08/21 03:12:41;;;;;;;7.00;5.57;;;14.50;99.90;;;;;;5031811;28;20467;-72
2022/08/21 03:15:10;;;;;;;12.67;4.50;;;14.40;99.90;;;;;;5031475;28;20410;-72
2022/08/21 03:17:36;;;;;;;7.10;5.40;;;14.40;99.90;;;;;;5031786;28;20453;-73
2022/08/21 03:20:03;;;;;;;7.47;6.10;;;14.40;99.90;;;;;;5031351;28;20453;-73
2022/08/21 03:22:29;;;;;;;6.77;5.67;;;14.40;99.90;;;;;;5031537;28;20203;-72
2022/08/21 03:24:54;;;;;;;7.83;5.93;;;14.50;99.90;;;;;;5031316;28;21077;-73
2022/08/21 03:27:20;;;;;;;5.33;4.83;;;14.50;99.90;;;;;;5030727;28;20656;-72
2022/08/21 03:29:46;;;;;;;5.97;5.47;;;14.60;99.90;;;;;;5030653;28;20172;-72
2022/08/21 03:32:12;;;;;;;5.43;4.50;;;14.50;99.90;;;;;;5031806;28;20429;-72
2022/08/21 03:34:38;;;;;;;8.27;4.80;;;14.50;99.90;;;;;;5030268;28;20222;-72
2022/08/21 03:37:06;;;;;;;9.50;5.93;;;14.50;99.90;;;;;;5030536;28;20186;-72
2022/08/21 03:39:33;;;;;;;5.33;4.37;;;14.50;99.90;;;;;;5030169;28;20457;-72
2022/08/21 03:41:59;;;;;;;5.97;4.20;;;14.50;99.90;;;;;;5031177;28;21060;-72
2022/08/21 03:44:27;;;;;;;7.50;4.10;;;14.50;99.90;;;;;;5031297;28;20410;-72
2022/08/21 03:46:53;;;;;;;6.77;5.87;;;14.50;99.90;;;;;;5031635;28;20891;-72
2022/08/21 03:49:18;;;;;;;5.17;4.37;;;14.40;99.90;;;;;;5031399;28;20472;-72
2022/08/21 03:51:44;;;;;;;6.80;4.60;;;14.40;99.90;;;;;;5031471;28;20262;-71
2022/08/21 03:54:09;;;;;;;6.23;4.73;;;14.40;99.90;;;;;;5031397;28;20183;-71
2022/08/21 03:56:35;;;;;;;6.10;4.83;;;14.40;99.90;;;;;;5030134;28;20183;-72
2022/08/21 03:59:02;;;;;;;5.67;4.57;;;14.30;99.90;;;;;;5031411;28;20175;-71
2022/08/21 04:01:28;;;;;;;5.20;4.70;;;14.30;99.90;;;;;;5031225;28;20193;-71
2022/08/21 04:03:54;;;;;;;4.60;4.17;;;14.30;99.90;;;;;;5031725;28;20485;-72
2022/08/21 04:06:19;;;;;;;6.47;4.23;;;14.30;99.90;;;;;;5034645;28;20438;-72
2022/08/21 04:08:45;;;;;;;5.33;4.40;;;14.30;99.90;;;;;;5033549;28;20172;-71
2022/08/21 04:11:10;;;;;;;5.90;4.07;;;14.30;99.90;;;;;;5034641;28;20668;-71
2022/08/21 04:13:36;;;;;;;7.00;4.67;;;14.30;99.90;;;;;;5034783;28;20218;-71
2022/08/21 04:16:03;;;;;;;7.60;5.20;;;14.20;99.90;;;;;;5033181;28;20258;-71
2022/08/21 04:18:28;;;;;;;16.00;4.67;;;14.20;99.90;;;;;;5033480;28;20933;-71
2022/08/21 04:20:56;;;;;;;6.13;5.07;;;14.20;99.90;;;;;;5034523;28;20398;-71
2022/08/21 04:23:22;;;;;;;9.70;4.43;;;14.20;99.90;;;;;;5034450;28;20192;-72
2022/08/21 04:25:48;;;;;;;7.60;4.87;;;14.20;99.90;;;;;;5034350;28;20410;-72
2022/08/21 04:28:13;;;;;;;7.60;4.60;;;14.20;99.90;;;;;;5034507;28;20402;-71
2022/08/21 04:30:39;;;;;;;9.93;5.70;;;14.20;99.90;;;;;;5034436;28;20515;-71
2022/08/21 04:33:05;;;;;;;5.47;4.77;;;14.20;99.90;;;;;;5034317;28;20776;-71
2022/08/21 04:35:31;;;;;;;4.87;3.83;;;14.20;99.90;;;;;;5034103;28;20180;-72
2022/08/21 04:37:57;;;;;;;7.40;4.63;;;14.20;99.90;;;;;;5034301;28;20413;-72
2022/08/21 04:40:25;;;;;;;8.30;4.53;;;14.20;99.90;;;;;;5034360;28;20648;-72
2022/08/21 04:42:55;;;;;;;6.43;4.70;;;14.20;99.90;;;;;;5032841;28;20462;-72
2022/08/21 04:45:21;;;;;;;6.80;5.37;;;14.20;99.90;;;;;;5033997;28;20409;-72
2022/08/21 04:47:49;;;;;;;5.90;4.10;;;14.20;99.90;;;;;;5034062;28;20406;-72
2022/08/21 04:50:15;;;;;;;5.73;4.50;;;14.30;99.90;;;;;;5034076;28;20430;-72
2022/08/21 04:52:41;;;;;;;9.53;4.90;;;14.30;99.90;;;;;;5034037;28;20430;-71
2022/08/21 04:55:08;;;;;;;6.33;4.50;;;14.30;99.90;;;;;;5033747;28;20168;-71
2022/08/21 04:57:34;;;;;;;10.03;5.17;;;14.30;99.90;;;;;;5033774;28;20164;-71
2022/08/21 05:00:01;;;;;;;5.73;4.67;;;14.30;99.90;;;;;;5033887;28;20465;-71
2022/08/21 05:02:27;;;;;;;5.27;3.70;;;14.30;99.90;;;;;;5033802;28;20488;-71
2022/08/21 05:04:54;;;;;;;5.90;4.43;;;14.30;99.90;;;;;;5033638;28;20415;-71
2022/08/21 05:07:26;;;;;;;5.43;3.83;;;14.40;99.90;;;;;;5033773;28;20199;-72
2022/08/21 05:09:51;;;;;;;7.67;5.17;;;14.40;99.90;;;;;;5033797;28;20407;-71
2022/08/21 05:12:17;;;;;;;5.60;4.67;;;14.40;99.90;;;;;;5033599;28;20965;-72
2022/08/21 05:14:43;;;;;;;5.03;4.10;;;14.40;99.90;;;;;;5032076;28;20506;-72
2022/08/21 05:17:09;;;;;;;10.07;4.77;;;14.40;99.90;;;;;;5033528;28;20636;-71
2022/08/21 05:19:35;;;;;;;6.17;4.63;;;14.50;99.90;;;;;;5033694;28;20667;-71
2022/08/21 05:22:01;;;;;;;6.10;4.23;;;14.50;99.90;;;;;;5033307;28;20485;-71
2022/08/21 05:24:27;;;;;;;5.77;4.43;;;14.50;99.90;;;;;;5033302;28;20163;-71
2022/08/21 05:26:53;;;;;;;5.57;3.93;;;14.60;99.90;;;;;;5033439;28;20164;-72
2022/08/21 05:29:19;;;;;;;6.13;5.07;;;14.70;99.90;;;;;;5033363;28;20899;-72
2022/08/21 05:31:46;;;;;;;4.43;3.80;;;14.70;99.90;;;;;;5033354;28;20160;-72
2022/08/21 05:34:13;;;;;;;6.30;4.37;;;14.80;99.90;;;;;;5033112;28;20402;-72
2022/08/21 05:36:38;;;;;;;7.60;4.53;;;14.90;99.90;;;;;;5033194;28;20848;-72
2022/08/21 05:39:04;;;;;;;9.33;4.00;;;15.00;99.90;;;;;;5033235;28;20442;-72
2022/08/21 05:41:29;;;;;;;5.07;4.57;;;15.10;99.90;;;;;;5033094;28;20174;-72
2022/08/21 05:43:55;;;;;;;4.23;3.83;;;15.30;99.90;;;;;;5033102;28;20645;-72
2022/08/21 05:46:20;;;;;;;4.10;3.17;;;15.50;99.90;;;;;;5032973;28;20170;-72
2022/08/21 05:48:46;;;;;;;6.63;4.20;;;15.80;99.90;;;;;;5032998;28;20247;-72
2022/08/21 05:51:14;;;;;;;2.97;2.77;;;16.10;99.90;;;;;;5032912;28;20669;-72
2022/08/21 05:53:44;;;;;;;6.80;2.80;;;16.50;99.90;;;;;;5032864;28;20194;-72
2022/08/21 05:56:11;;;;;;;3.50;2.40;;;17.00;99.90;;;;;;5032613;28;20400;-72
2022/08/21 05:58:37;;;;;;;4.33;2.20;;;17.50;99.90;;;;;;5032874;28;20413;-72
2022/08/21 06:01:04;;;;;;;3.37;2.00;;;18.00;99.90;;;;;;5032717;28;20441;-72
2022/08/21 06:03:34;;;;;;;2.73;1.90;;;18.60;99.90;;;;;;5031281;28;20454;-72
2022/08/21 06:06:01;;;;;;;6.17;2.20;;;19.20;99.90;;;;;;5032742;28;20489;-72
2022/08/21 06:08:27;;;;;;;2.80;1.83;;;19.80;99.90;;;;;;5032577;28;20481;-72
2022/08/21 06:10:55;;;;;;;6.23;1.83;;;20.40;99.90;;;;;;5032723;28;20498;-73
2022/08/21 06:13:22;;;;;;;3.60;2.43;;;21.00;99.90;;;;;;5032535;28;20450;-72
2022/08/21 06:15:48;;;;;;;2.73;1.40;;;21.60;99.90;;;;;;5032030;28;20399;-72
2022/08/21 06:18:14;;;;;;;3.60;2.03;;;22.10;99.90;;;;;;5032447;28;20414;-72
2022/08/21 06:20:41;;;;;;;2.53;1.90;;;22.60;99.90;;;;;;5032388;28;20453;-72
2022/08/21 06:23:07;;;;;;;4.87;2.30;;;23.10;99.90;;;;;;5032250;28;20462;-72
2022/08/21 06:25:33;;;;;;;2.93;1.77;;;23.60;99.90;;;;;;5032029;28;20405;-73
2022/08/21 06:28:10;;;;;;;3.53;1.47;;;24.30;99.90;;;;;;5032042;28;20777;-72
2022/08/21 06:30:37;;;;;;;4.87;1.43;;;24.60;99.90;;;;;;5032268;28;20163;-72
2022/08/21 06:33:03;;;;;;;2.70;1.87;;;25.10;99.90;;;;;;5032251;28;20839;-72
2022/08/21 06:35:29;;;;;;;3.17;2.00;;;25.70;99.90;;;;;;5031925;28;20975;-73
2022/08/21 06:37:58;;;;;;;2.07;1.83;;;26.20;96.40;;;;;;5031550;28;20413;-73
2022/08/21 06:40:24;;;;;;;3.30;1.90;;;26.90;82.30;;;;;;5032128;28;20772;-72
2022/08/21 06:42:49;;;;;;;2.60;1.63;;;27.40;75.10;;;;;;5032022;28;20461;-73
2022/08/21 06:45:15;;;;;;;2.57;1.87;;;27.60;71.20;;;;;;5031742;28;20402;-72
2022/08/21 06:47:41;;;;;;;2.33;1.20;;;27.80;72.70;;;;;;5032523;28;20164;-72
2022/08/21 06:50:07;;;;;;;2.07;1.60;;;28.30;70.50;;;;;;5032334;28;20174;-72
2022/08/21 06:52:34;;;;;;;3.10;1.37;;;28.90;63.70;;;;;;5032365;28;20274;-72
2022/08/21 06:54:59;;;;;;;2.63;1.37;;;29.20;63.00;;;;;;5031766;28;20438;-72
2022/08/21 06:57:25;;;;;;;5.00;1.73;;;29.60;59.90;;;;;;5032031;28;20433;-73
2022/08/21 06:59:51;;;;;;;2.03;1.53;;;30.20;56.40;;;;;;5031943;28;20167;-73
2022/08/21 07:02:17;;;;;;;3.77;1.40;;;30.10;54.50;;;;;;5031800;28;20207;-73
2022/08/21 07:04:43;;;;;;;2.60;1.47;;;30.10;54.30;;;;;;5031798;28;20191;-73
2022/08/21 07:07:08;;;;;;;3.67;1.70;;;30.20;53.80;;;;;;5032104;28;20489;-73
2022/08/21 07:09:34;;;;;;;1.83;1.13;;;30.40;53.10;;;;;;5032042;28;20521;-73
2022/08/21 07:11:59;;;;;;;2.80;1.90;;;30.80;52.20;;;;;;5031828;28;20661;-73
2022/08/21 07:14:25;;;;;;;5.13;1.73;;;30.80;51.80;;;;;;5031556;28;20178;-73
2022/08/21 07:16:51;;;;;;;2.90;1.40;;;31.30;50.60;;;;;;5031927;28;20663;-72
2022/08/21 07:19:17;;;;;;;1.70;1.10;;;31.70;51.20;;;;;;5031825;28;20564;-72
2022/08/21 07:21:42;;;;;;;2.63;1.60;;;32.40;48.20;;;;;;5031654;28;20269;-73
2022/08/21 07:24:08;;;;;;;1.70;1.60;;;32.80;48.10;;;;;;5031785;28;20172;-72
2022/08/21 07:26:34;;;;;;;2.90;1.53;;;33.20;47.30;;;;;;5031445;28;20183;-73
2022/08/21 07:28:59;;;;;;;2.30;1.90;;;33.80;47.20;;;;;;5030454;28;20497;-73
2022/08/21 07:31:26;;;;;;;3.00;1.40;;;34.40;46.20;;;;;;5032372;28;20160;-72
2022/08/21 07:33:52;;;;;;;2.30;1.40;;;34.60;43.90;;;;;;5031636;28;20188;-73
2022/08/21 07:36:18;;;;;;;2.80;1.40;;;35.00;42.30;;;;;;5029777;28;20767;-72
2022/08/21 07:38:44;;;;;;;3.80;1.77;;;34.10;44.40;;;;;;5031819;28;20398;-72
2022/08/21 07:41:15;;;;;;;3.77;1.77;;;33.40;45.40;;;;;;5035447;28;20380;-72
2022/08/21 07:43:40;;;;;;;2.07;1.20;;;33.10;44.40;;;;;;5035243;28;20924;-72
2022/08/21 07:46:06;;;;;;;1.60;1.30;;;32.70;46.50;;;;;;5033751;28;20398;-72
2022/08/21 07:48:31;;;;;;;3.40;1.40;;;32.80;46.00;;;;;;5035338;28;20179;-72
2022/08/21 07:50:58;;;;;;;2.57;1.40;;;32.90;45.50;;;;;;5033933;28;20653;-72
2022/08/21 07:53:23;;;;;;;3.20;1.40;;;32.60;45.60;;;;;;5035066;28;20280;-72
2022/08/21 07:55:49;;;;;;;2.50;1.60;;;32.60;46.20;;;;;;5033636;28;21197;-72
2022/08/21 07:58:15;;;;;;;1.50;1.30;;;32.40;47.10;;;;;;5032743;28;20171;-72
2022/08/21 08:00:41;;;;;;;5.63;1.87;;;31.90;47.60;;;;;;5035130;28;20186;-72
2022/08/21 08:03:07;;;;;;;3.77;1.60;;;31.60;48.10;;;;;;5034834;28;20191;-72
2022/08/21 08:05:32;;;;;;;2.40;1.50;;;31.40;49.10;;;;;;5034209;28;20412;-72
2022/08/21 08:07:58;;;;;;;4.83;2.30;;;31.20;49.00;;;;;;5033480;28;20566;-72
2022/08/21 08:10:24;;;;;;;3.03;1.90;;;30.90;48.90;;;;;;5034577;28;20246;-72
2022/08/21 08:12:51;;;;;;;3.20;1.63;;;30.40;50.30;;;;;;5034467;28;20425;-73
2022/08/21 08:15:19;;;;;;;3.53;2.77;;;30.10;50.40;;;;;;5034255;28;20251;-73
2022/08/21 08:17:45;;;;;;;3.03;1.80;;;29.90;51.20;;;;;;5034535;28;20399;-73
2022/08/21 08:20:14;;;;;;;4.47;1.70;;;29.70;51.80;;;;;;5034417;28;20467;-72
2022/08/21 08:22:41;;;;;;;3.37;1.20;;;29.80;52.60;;;;;;5034225;28;20533;-72
2022/08/21 08:25:08;;;;;;;2.97;1.50;;;30.50;52.10;;;;;;5032431;28;20488;-72
2022/08/21 08:27:33;;;;;;;5.03;2.00;;;31.30;51.00;;;;;;5034369;28;20402;-72
2022/08/21 08:29:59;;;;;;;2.60;1.57;;;32.70;48.10;;;;;;5034912;28;20413;-72
2022/08/21 08:32:25;;;;;;;2.70;1.43;;;33.80;46.50;;;;;;5034607;28;20187;-72
2022/08/21 08:34:51;;;;;;;2.03;1.53;;;35.00;44.40;;;;;;5034251;28;20201;-72
2022/08/21 08:37:18;;;;;;;1.87;1.60;;;35.40;41.80;;;;;;5034090;28;20256;-72
2022/08/21 08:39:44;;;;;;;3.00;1.63;;;36.10;42.70;;;;;;5033977;28;20481;-72
2022/08/21 08:42:14;;;;;;;2.77;1.70;;;37.20;40.10;;;;;;5033945;28;20541;-72
2022/08/21 08:44:45;;;;;;;3.10;1.80;;;37.60;38.10;;;;;;5033884;28;20175;-72
2022/08/21 08:47:14;;;;;;;3.50;1.50;;;38.00;37.70;;;;;;5034142;28;20405;-71
2022/08/21 08:49:47;;;;;;;4.77;2.20;;;38.60;36.00;;;;;;5033739;28;20903;-72
2022/08/21 08:52:31;;;;;;;3.87;1.87;;;38.80;36.70;;;;;;5033597;28;20621;-71
2022/08/21 08:55:09;;;;;;;2.00;1.43;;;39.20;36.80;;;;;;5033497;28;20405;-71
2022/08/21 08:57:37;;;;;;;4.70;1.83;;;40.00;35.00;;;;;;5033712;28;20373;-71
2022/08/21 09:00:10;;;;;;;2.27;1.47;;;41.00;33.50;;;;;;5033847;28;20383;-70
2022/08/21 09:02:39;;;;;;;1.80;1.70;;;41.70;33.50;;;;;;5032474;28;20440;-70
2022/08/21 09:05:06;;;;;;;3.10;1.57;;;42.20;33.50;;;;;;5033794;28;21172;-70
2022/08/21 09:08:10;;;;;;;2.10;1.90;;;42.30;30.40;;;;;;5032805;28;20785;-70
2022/08/21 09:10:47;;;;;;;2.27;1.93;;;42.00;30.50;;;;;;5033914;28;20380;-71
2022/08/21 09:13:19;;;;;;;2.50;1.50;;;42.40;30.00;;;;;;5033345;28;20432;-71
2022/08/21 09:15:53;;;;;;;3.83;1.83;;;42.40;30.00;;;;;;5031906;28;20421;-71
2022/08/21 09:18:37;;;;;;;1.53;1.40;;;42.30;29.70;;;;;;5033846;28;20372;-70
2022/08/21 09:21:19;;;;;;;4.33;1.60;;;42.40;29.30;;;;;;5032439;28;20463;-72
2022/08/21 09:24:26;;;;;;;2.47;1.60;;;42.00;30.00;;;;;;5033568;28;20464;-70
2022/08/21 09:27:01;;;;;;;1.97;1.53;;;42.30;29.50;;;;;;5033630;28;20862;-70
2022/08/21 09:29:31;;;;;;;3.07;1.77;;;42.40;29.50;;;;;;5033052;28;20406;-70
2022/08/21 09:31:57;;;;;;;2.67;1.90;;;43.00;30.00;;;;;;5033118;28;20433;-71
2022/08/21 09:34:32;;;;;;;1.50;1.40;;;43.60;29.00;;;;;;5032654;28;20432;-70
2022/08/21 09:36:59;;;;;;;2.03;1.60;;;43.80;29.10;;;;;;5033129;28;20175;-70
2022/08/21 09:39:39;;;;;;;3.40;1.83;;;44.20;28.80;;;;;;5032957;28;20745;-70
2022/08/21 09:42:07;;;;;;;2.37;1.90;;;44.00;28.70;;;;;;5033266;28;20503;-72
2022/08/21 09:44:39;;;;;;;5.97;1.90;;;44.30;29.00;;;;;;5032823;28;20392;-70
2022/08/21 09:47:05;;;;;;;2.33;2.03;;;44.80;28.10;;;;;;5033199;28;20409;-72
2022/08/21 09:49:34;;;;;;;2.00;1.80;;;44.90;28.60;;;;;;5032593;28;20384;-72
2022/08/21 09:52:02;;;;;;;9.33;2.80;;;45.50;28.10;;;;;;5032556;28;20775;-72
2022/08/21 09:54:34;;;;;;;2.67;2.13;;;45.90;27.10;;;;;;5032056;28;20373;-72
2022/08/21 10:00:06;;;;;;;2.67;1.70;;;43.70;28.00;;;;;;5033176;28;20449;-71
2022/08/21 10:02:35;;;;;;;1.93;1.40;;;42.80;28.60;;;;;;5032165;28;20429;-71
2022/08/21 10:05:15;;;;;;;3.20;2.63;;;42.60;29.10;;;;;;5032353;28;20381;-72
2022/08/21 10:07:41;;;;;;;1.90;1.80;;;43.10;29.40;;;;;;5032537;28;20484;-72
2022/08/21 10:10:40;;;;;;;3.30;1.93;;;44.10;28.30;;;;;;5032276;28;20498;-72
2022/08/21 10:13:05;;;;;;;4.43;2.00;;;44.90;28.40;;;;;;5032496;28;20225;-71
2022/08/21 10:16:08;;;;;;;3.33;1.87;;;45.80;27.70;;;;;;5032180;28;20381;-71
2022/08/21 10:18:49;;;;;;;2.10;1.90;;;46.60;27.20;;;;;;5031675;28;20254;-71
2022/08/21 10:21:31;;;;;;;3.27;1.93;;;46.90;27.10;;;;;;5032800;28;20903;-71
2022/08/21 10:24:23;;;;;;;2.33;1.90;;;47.30;26.70;;;;;;5030728;28;20380;-71
2022/08/21 10:27:13;;;;;;;4.23;2.27;;;47.60;26.20;;;;;;5032161;28;20738;-72
2022/08/21 10:29:55;;;;;;;2.10;1.87;;;47.80;25.20;;;;;;5032075;28;20399;-71
2022/08/21 10:32:35;;;;;;;5.40;3.40;;;46.70;26.30;;;;;;5031910;28;20523;-71
2022/08/21 10:35:22;;;;;;;3.07;2.10;;;47.20;26.80;;;;;;5031765;28;20396;-71
2022/08/21 10:38:16;;;;;;;2.30;1.90;;;47.40;26.00;;;;;;5031901;28;20870;-72
2022/08/21 10:40:50;;;;;;;2.53;2.33;;;47.60;24.90;;;;;;5031898;28;20472;-72
2022/08/21 10:43:49;;;;;;;2.00;1.90;;;46.60;25.30;;;;;;5030548;28;20799;-71
2022/08/21 10:46:20;;;;;;;2.40;2.00;;;46.30;26.00;;;;;;5031577;28;20369;-71
2022/08/21 10:48:57;;;;;;;1.90;1.70;;;46.00;26.00;;;;;;5031833;28;20402;-72
2022/08/21 10:51:40;;;;;;;2.17;1.50;;;45.50;26.20;;;;;;5031728;28;20403;-72
2022/08/21 10:54:29;;;;;;;2.07;1.70;;;45.90;26.20;;;;;;5031634;28;20389;-72
2022/08/21 10:57:01;;;;;;;3.50;1.83;;;46.10;26.50;;;;;;5031907;28;20764;-71
2022/08/21 10:59:38;;;;;;;1.70;1.50;;;45.90;25.60;;;;;;5031963;28;20402;-71
2022/08/21 11:02:10;;;;;;;2.03;1.70;;;45.50;26.40;;;;;;5031635;28;20859;-71
2022/08/21 11:04:53;;;;;;;2.03;1.90;;;45.70;26.10;;;;;;5031421;28;20899;-71
2022/08/21 11:07:36;;;;;;;3.30;1.70;;;45.90;25.80;;;;;;5031495;28;20377;-71
2022/08/21 11:10:12;;;;;;;1.70;1.60;;;46.40;25.40;;;;;;5031682;28;20388;-71
2022/08/21 11:12:46;;;;;;;2.70;1.80;;;46.30;26.20;;;;;;5031547;28;20893;-72
2022/08/21 11:15:34;;;;;;;2.23;1.70;;;45.70;24.60;;;;;;5035275;28;20398;-71
2022/08/21 11:18:26;;;;;;;2.17;1.97;;;45.90;25.80;;;;;;5035518;28;20392;-71
2022/08/21 11:21:03;;;;;;;2.20;1.80;;;46.60;25.50;;;;;;5035423;28;20399;-72
2022/08/21 11:23:57;;;;;;;3.67;2.20;;;47.10;25.50;;;;;;5035328;28;20393;-72
2022/08/21 11:26:42;;;;;;;2.00;1.70;;;48.10;25.30;;;;;;5035197;28;20380;-71
2022/08/21 11:29:26;;;;;;;4.60;2.20;;;48.30;24.90;;;;;;5034488;28;20391;-71
2022/08/21 11:32:18;;;;;;;3.20;1.67;;;47.80;25.30;;;;;;5035237;28;20481;-71
2022/08/21 11:35:02;;;;;;;3.70;2.10;;;47.20;25.80;;;;;;5034030;28;20882;-71
2022/08/21 11:37:47;;;;;;;2.80;2.00;;;47.10;26.10;;;;;;5035525;28;20373;-71
2022/08/21 11:40:31;;;;;;;4.50;1.87;;;47.00;25.00;;;;;;5035184;28;20399;-71
2022/08/21 11:43:24;;;;;;;1.70;1.60;;;46.50;26.20;;;;;;5035320;28;20389;-71
2022/08/21 11:45:55;;;;;;;2.10;1.83;;;46.10;25.80;;;;;;5034736;28;20930;-71
2022/08/21 11:48:43;;;;;;;2.10;1.90;;;46.70;25.60;;;;;;5033610;28;20385;-71
2022/08/21 11:51:18;;;;;;;2.13;1.80;;;47.30;25.90;;;;;;5034720;28;20405;-71
2022/08/21 11:53:54;;;;;;;7.20;5.63;;;48.00;25.80;;;;;;5034428;28;20419;-72
2022/08/21 11:56:33;;;;;;;2.80;2.10;;;48.60;25.30;;;;;;5034429;28;20394;-72
2022/08/21 11:59:06;;;;;;;2.40;2.20;;;49.70;25.10;;;;;;5034712;28;20403;-71
2022/08/21 12:01:40;;;;;;;3.13;2.67;;;50.00;24.90;;;;;;5034859;28;20434;-72
2022/08/21 12:04:18;;;;;;;2.83;2.53;;;50.50;24.20;;;;;;5034603;28;20386;-72
2022/08/21 12:06:44;;;;;;;5.87;2.40;;;50.70;24.20;;;;;;5034910;28;20758;-73
2022/08/21 12:09:36;;;;;;;2.50;2.30;;;50.80;24.00;;;;;;5033281;28;20414;-71
2022/08/21 12:12:04;;;;;;;3.50;2.50;;;50.80;24.30;;;;;;5033324;28;20614;-71
2022/08/21 12:14:50;;;;;;;3.40;2.40;;;50.90;24.00;;;;;;5034085;28;20405;-71
2022/08/21 12:17:21;;;;;;;2.70;2.50;;;50.50;24.10;;;;;;5034869;28;20775;-72
2022/08/21 12:19:58;;;;;;;2.90;2.50;;;50.60;23.60;;;;;;5034203;28;20485;-71
2022/08/21 12:22:39;;;;;;;1.80;1.70;;;49.90;23.40;;;;;;5032992;28;20425;-71
2022/08/21 12:25:18;;;;;;;3.17;2.33;;;48.90;24.50;;;;;;5033376;28;20488;-71
2022/08/21 12:27:46;;;;;;;2.17;1.97;;;48.50;25.20;;;;;;5034830;28;20459;-71
2022/08/21 12:30:37;;;;;;;3.03;2.20;;;47.80;25.20;;;;;;5034427;28;20968;-72
2022/08/21 12:33:24;;;;;;;2.23;2.03;;;47.60;25.40;;;;;;5033808;28;20466;-71
2022/08/21 12:36:00;;;;;;;2.10;1.90;;;47.60;25.80;;;;;;5033928;28;20426;-71
2022/08/21 12:38:33;;;;;;;2.93;2.63;;;47.90;25.70;;;;;;5034124;28;20425;-71
2022/08/21 12:41:11;;;;;;;3.70;2.50;;;48.60;24.60;;;;;;5034136;28;20430;-71
2022/08/21 12:43:43;;;;;;;3.10;2.60;;;49.40;25.10;;;;;;5034343;28;20426;-71
2022/08/21 12:46:17;;;;;;;2.63;1.90;;;49.90;24.90;;;;;;5032551;28;20410;-71
2022/08/21 12:49:06;;;;;;;3.43;2.00;;;50.00;24.70;;;;;;5033062;28;20497;-71
2022/08/21 12:51:53;;;;;;;2.73;1.97;;;50.20;24.30;;;;;;5032579;28;20798;-71
2022/08/21 12:54:29;;;;;;;2.87;2.50;;;50.20;24.20;;;;;;5032299;28;20446;-71
2022/08/21 12:57:00;;;;;;;4.40;2.27;;;49.60;23.80;;;;;;5033579;28;20947;-71
2022/08/21 12:59:26;;;;;;;2.30;2.10;;;49.30;24.40;;;;;;5033849;28;20414;-71
2022/08/21 13:01:54;;;;;;;2.50;2.20;;;49.20;23.80;;;;;;5033733;28;20437;-71
2022/08/21 13:04:26;;;;;;;2.20;2.00;;;49.20;24.30;;;;;;5033398;28;20198;-71